createdAt,value
2019-03-09T00:01:08.671Z,20.70
2019-03-09T00:03:37.462Z,15.03
2019-03-09T00:06:05.438Z,18.13
2019-03-09T00:08:35.106Z,16.37
2019-03-09T00:11:03.030Z,15.93
2019-03-09T00:13:32.844Z,16.70
2019-03-09T00:16:01.438Z,22.13
2019-03-09T00:18:29.413Z,18.23
2019-03-09T00:20:57.520Z,18.87
2019-03-09T00:23:47.675Z,17.50
2019-03-09T00:26:34.843Z,19.43
2019-03-09T00:29:14.452Z,16.50
2019-03-09T00:31:47.447Z,18.20
2019-03-09T00:34:15.939Z,15.17
2019-03-09T00:36:44.503Z,18.50
2019-03-09T00:39:13.097Z,18.97
2019-03-09T00:41:41.246Z,16.80
2019-03-09T00:44:09.534Z,16.73
2019-03-09T00:46:38.088Z,16.23
2019-03-09T00:49:05.893Z,20.27
2019-03-09T00:51:34.465Z,18.87
2019-03-09T00:54:02.755Z,18.27
2019-03-09T00:56:30.959Z,23.23
2019-03-09T00:58:59.316Z,16.90
2019-03-09T01:01:27.911Z,16.23
2019-03-09T01:03:56.133Z,17.37
2019-03-09T01:06:25.882Z,12.27
2019-03-09T01:08:56.819Z,10.67
2019-03-09T01:11:25.326Z,13.10
2019-03-09T01:13:54.197Z,12.97
2019-03-09T01:16:28.234Z,12.57
2019-03-09T01:18:56.617Z,13.57
2019-03-09T01:21:26.586Z,10.43
2019-03-09T01:23:55.424Z,10.80
2019-03-09T01:26:23.636Z,11.93
2019-03-09T01:28:51.862Z,12.70
2019-03-09T01:31:21.593Z,14.53
2019-03-09T01:33:50.122Z,10.97
2019-03-09T01:36:19.397Z,14.27
2019-03-09T01:38:47.655Z,9.53
2019-03-09T01:41:16.243Z,13.83
2019-03-09T01:43:45.344Z,15.60
2019-03-09T01:46:14.142Z,14.97
2019-03-09T01:48:42.430Z,14.63
2019-03-09T01:51:10.537Z,16.20
2019-03-09T01:53:38.742Z,18.27
2019-03-09T01:56:06.842Z,14.80
2019-03-09T01:58:35.335Z,13.87
2019-03-09T02:01:03.824Z,18.13
2019-03-09T02:03:32.129Z,17.17
2019-03-09T02:06:00.601Z,19.60
2019-03-09T02:08:28.877Z,16.23
2019-03-09T02:10:56.827Z,15.40
2019-03-09T02:13:25.565Z,14.90
2019-03-09T02:15:53.373Z,16.30
2019-03-09T02:18:21.445Z,19.87
2019-03-09T02:20:49.774Z,16.00
2019-03-09T02:23:18.161Z,18.67
2019-03-09T02:25:45.775Z,20.67
2019-03-09T02:28:14.181Z,13.03
2019-03-09T02:30:42.286Z,16.83
2019-03-09T02:33:10.141Z,13.23
2019-03-09T02:35:38.835Z,15.20
2019-03-09T02:38:23.542Z,16.00
2019-03-09T02:40:51.615Z,12.07
2019-03-09T02:43:19.488Z,14.07
2019-03-09T02:45:47.425Z,10.80
2019-03-09T02:48:17.689Z,12.23
2019-03-09T02:50:57.308Z,11.93
2019-03-09T02:53:26.419Z,12.50
2019-03-09T02:55:54.851Z,15.57
2019-03-09T02:58:22.918Z,15.13
2019-03-09T03:01:12.347Z,15.27
2019-03-09T03:03:40.773Z,17.83
2019-03-09T03:06:08.904Z,16.97
2019-03-09T03:08:37.026Z,16.87
2019-03-09T03:11:04.977Z,17.83
2019-03-09T03:13:35.843Z,20.17
2019-03-09T03:16:10.463Z,22.77
2019-03-09T03:18:38.616Z,20.23
2019-03-09T03:21:07.035Z,20.20
2019-03-09T03:23:35.361Z,23.00
2019-03-09T03:26:03.592Z,21.37
2019-03-09T03:28:31.686Z,22.47
2019-03-09T03:30:59.863Z,18.60
2019-03-09T03:33:28.042Z,20.90
2019-03-09T03:35:56.527Z,19.23
2019-03-09T03:38:25.140Z,19.10
2019-03-09T03:40:53.609Z,23.90
2019-03-09T03:43:22.263Z,20.53
2019-03-09T03:45:50.668Z,20.50
2019-03-09T03:48:21.104Z,24.10
2019-03-09T03:50:49.400Z,19.03
2019-03-09T03:53:17.831Z,22.43
2019-03-09T03:55:46.150Z,21.60
2019-03-09T03:58:15.072Z,23.53
2019-03-09T04:00:43.096Z,24.10
2019-03-09T04:03:11.704Z,23.17
2019-03-09T04:05:40.492Z,22.73
2019-03-09T04:08:11.239Z,23.47
2019-03-09T04:10:39.860Z,20.13
2019-03-09T04:13:07.879Z,22.03
2019-03-09T04:15:36.432Z,23.33
2019-03-09T04:18:04.688Z,27.13
2019-03-09T04:20:33.136Z,24.17
2019-03-09T04:23:01.153Z,21.87
2019-03-09T04:25:29.355Z,20.33
2019-03-09T04:27:57.218Z,21.07
2019-03-09T04:30:25.029Z,21.57
2019-03-09T04:32:53.108Z,20.70
2019-03-09T04:35:21.253Z,19.00
2019-03-09T04:37:49.510Z,18.10
2019-03-09T04:40:17.720Z,17.07
2019-03-09T04:42:45.902Z,17.20
2019-03-09T04:45:14.260Z,19.47
2019-03-09T04:47:42.661Z,19.47
2019-03-09T04:50:11.346Z,17.30
2019-03-09T04:52:40.752Z,15.47
2019-03-09T04:55:09.734Z,15.63
2019-03-09T04:57:46.938Z,15.63
2019-03-09T05:00:11.640Z,14.47
2019-03-09T05:02:41.276Z,16.33
2019-03-09T05:05:13.137Z,14.17
2019-03-09T05:14:21.977Z,12.73
2019-03-09T05:16:51.915Z,13.87
2019-03-09T05:19:21.793Z,13.67
2019-03-09T05:21:50.946Z,10.47
2019-03-09T05:24:20.340Z,10.67
2019-03-09T05:26:48.630Z,10.17
2019-03-09T05:29:17.361Z,13.77
2019-03-09T05:31:48.487Z,11.33
2019-03-09T05:34:22.802Z,10.60
2019-03-09T05:36:51.058Z,12.63
2019-03-09T05:39:21.497Z,14.67
2019-03-09T05:41:50.098Z,8.13
2019-03-09T05:44:18.733Z,9.53
2019-03-09T05:46:50.665Z,10.93
2019-03-09T05:49:27.656Z,10.20
2019-03-09T05:52:33.466Z,10.47
2019-03-09T05:55:19.576Z,13.47
2019-03-09T05:57:51.753Z,10.80
2019-03-09T06:00:22.905Z,12.57
2019-03-09T06:02:52.687Z,15.03
2019-03-09T06:05:30.352Z,10.50
2019-03-09T06:14:05.732Z,14.87
2019-03-09T06:16:38.289Z,16.30
2019-03-09T06:19:06.933Z,18.90
2019-03-09T06:21:39.641Z,13.63
2019-03-09T06:24:09.506Z,9.73
2019-03-09T06:26:41.361Z,17.57
2019-03-09T06:29:14.510Z,18.50
2019-03-09T06:35:11.928Z,16.27
2019-03-09T06:37:42.334Z,18.07
2019-03-09T06:40:11.328Z,19.30
2019-03-09T06:42:52.036Z,18.33
2019-03-09T06:45:29.426Z,13.90
2019-03-09T06:51:01.698Z,21.00
2019-03-09T06:57:01.700Z,26.93
2019-03-09T06:59:40.330Z,24.17
2019-03-09T07:02:12.364Z,25.23
2019-03-09T07:04:43.660Z,29.50
2019-03-09T07:07:15.216Z,23.47
2019-03-09T07:10:02.474Z,27.10
2019-03-09T07:16:35.011Z,25.60
2019-03-09T07:19:32.691Z,17.87
2019-03-09T07:22:00.172Z,15.93
2019-03-09T07:24:47.054Z,22.57
2019-03-09T07:27:29.634Z,24.50
2019-03-09T07:30:13.096Z,23.53
2019-03-09T07:36:09.767Z,26.03
2019-03-09T07:41:43.374Z,24.80
2019-03-09T07:47:25.631Z,30.50
2019-03-09T07:50:17.656Z,18.70
2019-03-09T07:56:41.194Z,24.83
2019-03-09T08:02:39.529Z,24.43
2019-03-09T08:05:12.102Z,19.50
2019-03-09T08:07:40.560Z,23.10
2019-03-09T08:10:15.540Z,22.27
2019-03-09T08:12:45.826Z,22.30
2019-03-09T08:15:20.869Z,23.77
2019-03-09T08:17:48.835Z,18.27
2019-03-09T08:20:21.008Z,23.77
2019-03-09T08:23:01.897Z,23.03
2019-03-09T08:25:34.768Z,18.20
2019-03-09T08:28:16.435Z,19.80
2019-03-09T08:30:48.096Z,18.97
2019-03-09T08:33:19.712Z,15.70
2019-03-09T08:35:50.013Z,20.60
2019-03-09T08:38:18.705Z,16.50
2019-03-09T08:40:47.070Z,16.93
2019-03-09T08:43:22.468Z,24.90
2019-03-09T08:45:52.972Z,12.80
2019-03-09T08:48:24.370Z,15.30
2019-03-09T08:50:56.349Z,16.33
2019-03-09T08:53:33.799Z,15.03
2019-03-09T08:56:08.356Z,17.10
2019-03-09T08:58:36.797Z,18.70
2019-03-09T09:07:54.118Z,21.83
2019-03-09T09:10:25.350Z,20.90
2019-03-09T09:13:13.986Z,19.97
2019-03-09T09:15:43.804Z,19.27
2019-03-09T09:18:18.289Z,24.20
2019-03-09T09:20:52.964Z,23.53
2019-03-09T09:23:30.636Z,18.27
2019-03-09T09:25:59.959Z,15.53
2019-03-09T09:28:28.910Z,18.37
2019-03-09T09:30:57.495Z,17.63
2019-03-09T09:33:28.817Z,18.33
2019-03-09T09:35:57.363Z,16.90
2019-03-09T09:38:26.249Z,18.20
2019-03-09T09:40:55.792Z,19.37
2019-03-09T09:43:30.339Z,17.57
2019-03-09T09:45:59.212Z,17.07
2019-03-09T09:48:27.631Z,20.60
2019-03-09T09:50:56.921Z,22.33
2019-03-09T09:53:26.682Z,17.53
2019-03-09T09:55:56.639Z,21.40
2019-03-09T09:58:35.292Z,19.47
2019-03-09T10:01:06.258Z,15.07
2019-03-09T10:03:37.127Z,19.47
2019-03-09T10:06:08.006Z,17.53
2019-03-09T10:08:44.333Z,12.00
2019-03-09T10:11:14.067Z,16.17
2019-03-09T10:13:49.499Z,19.80
2019-03-09T10:16:22.468Z,18.57
2019-03-09T10:18:56.031Z,24.67
2019-03-09T10:21:27.577Z,16.63
2019-03-09T10:24:00.741Z,12.13
2019-03-09T10:26:29.524Z,18.60
2019-03-09T10:28:58.220Z,20.40
2019-03-09T10:31:30.861Z,15.10
2019-03-09T10:34:02.540Z,17.50
2019-03-09T10:36:31.733Z,16.07
2019-03-09T10:39:24.862Z,18.37
2019-03-09T10:41:35.870Z,17.50
2019-03-09T10:44:07.001Z,17.60
2019-03-09T10:46:39.999Z,20.20
2019-03-09T10:49:09.380Z,17.20
2019-03-09T11:39:55.866Z,13.40
2019-03-09T11:42:24.616Z,16.90
2019-03-09T11:44:54.134Z,17.07
2019-03-09T11:47:25.413Z,16.00
2019-03-09T11:49:55.501Z,12.27
2019-03-09T11:52:29.580Z,15.50
2019-03-09T11:55:09.568Z,11.37
2019-03-09T11:57:41.801Z,13.13
2019-03-09T12:00:20.447Z,16.37
2019-03-09T12:02:53.826Z,17.10
2019-03-09T12:05:23.015Z,18.73
2019-03-09T12:07:51.937Z,19.80
2019-03-09T12:24:41.718Z,16.93
2019-03-09T12:27:13.573Z,15.33
2019-03-09T12:29:45.512Z,14.47
2019-03-09T12:32:13.808Z,10.23
2019-03-09T12:34:45.664Z,16.90
2019-03-09T12:37:19.947Z,12.60
2019-03-09T12:39:49.289Z,17.90
2019-03-09T12:42:25.844Z,9.97
2019-03-09T12:45:04.040Z,18.87
2019-03-09T12:47:33.859Z,13.27
2019-03-09T12:50:05.207Z,13.67
2019-03-09T12:52:35.778Z,18.03
2019-03-09T12:55:10.507Z,12.30
2019-03-09T12:57:39.057Z,13.43
2019-03-09T13:00:16.845Z,19.87
2019-03-09T13:02:46.403Z,17.87
2019-03-09T13:05:15.911Z,19.23
2019-03-09T13:07:47.755Z,14.53
2019-03-09T13:10:18.183Z,16.07
2019-03-09T13:12:46.716Z,16.10
2019-03-09T13:15:17.199Z,13.47
2019-03-09T13:17:52.114Z,18.03
2019-03-09T13:20:20.893Z,13.70
2019-03-09T13:22:50.618Z,15.30
2019-03-09T13:25:20.015Z,13.37
2019-03-09T13:27:48.527Z,13.83
2019-03-09T13:37:38.286Z,13.83
2019-03-09T13:44:21.984Z,13.03
2019-03-09T13:47:52.330Z,11.30
2019-03-09T13:50:48.239Z,13.20
2019-03-09T13:53:26.653Z,12.97
2019-03-09T13:56:45.713Z,11.63
2019-03-09T13:59:45.561Z,14.47
2019-03-09T14:02:45.529Z,16.27
2019-03-09T14:05:45.571Z,14.27
2019-03-09T14:13:04.024Z,17.60
2019-03-09T14:14:54.933Z,17.07
2019-03-09T14:18:06.723Z,15.53
2019-03-09T22:43:12.649Z,18.03
2019-03-09T22:45:54.463Z,12.53
2019-03-09T22:48:35.854Z,12.07
2019-03-09T22:51:19.879Z,13.03
2019-03-09T22:53:53.891Z,12.03
2019-03-09T22:56:24.516Z,13.63
2019-03-09T22:59:12.509Z,18.07
2019-03-09T23:09:06.751Z,12.00
2019-03-09T23:11:43.036Z,10.87
2019-03-09T23:20:21.870Z,14.60
2019-03-09T23:28:43.902Z,13.03
2019-03-09T23:31:12.067Z,11.50
2019-03-09T23:33:39.805Z,11.33
2019-03-09T23:36:07.932Z,14.03
2019-03-09T23:38:35.676Z,11.27
2019-03-09T23:41:06.510Z,10.60
2019-03-09T23:43:34.464Z,10.03
2019-03-09T23:46:03.236Z,11.97
2019-03-09T23:48:32.326Z,15.27
2019-03-09T23:51:04.049Z,13.20
2019-03-09T23:53:35.570Z,13.90
2019-03-09T23:56:04.621Z,9.37
2019-03-09T23:58:35.816Z,12.03
